sensor_id;sensor_type;location;lat;lon;timestamp;temperature;humidity
31391;DHT22;18022;45.492;11.548;2022-09-21T00:02:15;15.70;99.90
31391;DHT22;18022;45.492;11.548;2022-09-21T00:04:40;15.60;99.90
31391;DHT22;18022;45.492;11.548;2022-09-21T00:07:06;15.80;99.90
31391;DHT22;18022;45.492;11.548;2022-09-21T00:09:31;15.80;99.90
31391;DHT22;18022;45.492;11.548;2022-09-21T00:11:57;15.80;99.90
31391;DHT22;18022;45.492;11.548;2022-09-21T00:14:23;15.90;99.90
31391;DHT22;18022;45.492;11.548;2022-09-21T00:16:49;15.90;99.90
31391;DHT22;18022;45.492;11.548;2022-09-21T00:19:15;15.90;99.90
31391;DHT22;18022;45.492;11.548;2022-09-21T00:21:41;15.80;99.90
31391;DHT22;18022;45.492;11.548;2022-09-21T00:24:07;15.90;99.90
31391;DHT22;18022;45.492;11.548;2022-09-21T00:26:33;15.90;99.90
31391;DHT22;18022;45.492;11.548;2022-09-21T00:29:00;16.00;99.90
31391;DHT22;18022;45.492;11.548;2022-09-21T00:31:27;15.80;99.90
31391;DHT22;18022;45.492;11.548;2022-09-21T00:33:53;15.90;99.90
31391;DHT22;18022;45.492;11.548;2022-09-21T00:36:21;16.10;99.90
31391;DHT22;18022;45.492;11.548;2022-09-21T00:38:59;16.20;99.90
31391;DHT22;18022;45.492;11.548;2022-09-21T00:41:30;16.20;99.90
31391;DHT22;18022;45.492;11.548;2022-09-21T00:46:48;16.10;99.90
31391;DHT22;18022;45.492;11.548;2022-09-21T00:49:16;16.10;99.90
31391;DHT22;18022;45.492;11.548;2022-09-21T00:51:42;15.90;99.90
31391;DHT22;18022;45.492;11.548;2022-09-21T00:54:16;15.70;99.90
31391;DHT22;18022;45.492;11.548;2022-09-21T00:56:44;15.70;99.90
31391;DHT22;18022;45.492;11.548;2022-09-21T00:59:11;15.60;99.90
31391;DHT22;18022;45.492;11.548;2022-09-21T01:01:38;15.60;99.90
31391;DHT22;18022;45.492;11.548;2022-09-21T01:04:04;15.40;99.90
31391;DHT22;18022;45.492;11.548;2022-09-21T01:06:32;15.30;99.90
31391;DHT22;18022;45.492;11.548;2022-09-21T01:08:58;15.20;99.90
31391;DHT22;18022;45.492;11.548;2022-09-21T01:11:28;15.10;99.90
31391;DHT22;18022;45.492;11.548;2022-09-21T01:14:25;15.00;99.90
31391;DHT22;18022;45.492;11.548;2022-09-21T01:17:10;15.10;99.90
31391;DHT22;18022;45.492;11.548;2022-09-21T01:26:09;15.20;99.90
31391;DHT22;18022;45.492;11.548;2022-09-21T01:30:39;15.10;99.90
31391;DHT22;18022;45.492;11.548;2022-09-21T01:33:12;15.00;99.90
31391;DHT22;18022;45.492;11.548;2022-09-21T01:35:59;15.00;99.90
31391;DHT22;18022;45.492;11.548;2022-09-21T01:38:29;14.90;99.90
31391;DHT22;18022;45.492;11.548;2022-09-21T01:41:01;15.00;99.90
31391;DHT22;18022;45.492;11.548;2022-09-21T01:43:36;14.90;99.90
31391;DHT22;18022;45.492;11.548;2022-09-21T01:46:06;14.90;99.90
31391;DHT22;18022;45.492;11.548;2022-09-21T01:48:37;14.80;99.90
31391;DHT22;18022;45.492;11.548;2022-09-21T01:51:07;14.70;99.90
31391;DHT22;18022;45.492;11.548;2022-09-21T01:56:15;14.60;99.90
31391;DHT22;18022;45.492;11.548;2022-09-21T01:58:57;14.60;99.90
31391;DHT22;18022;45.492;11.548;2022-09-21T02:01:28;14.60;99.90
31391;DHT22;18022;45.492;11.548;2022-09-21T02:04:04;14.70;99.90
31391;DHT22;18022;45.492;11.548;2022-09-21T02:06:32;14.70;99.90
31391;DHT22;18022;45.492;11.548;2022-09-21T02:08:58;14.60;99.90
31391;DHT22;18022;45.492;11.548;2022-09-21T02:11:24;14.40;99.90
31391;DHT22;18022;45.492;11.548;2022-09-21T02:13:52;14.40;99.90
31391;DHT22;18022;45.492;11.548;2022-09-21T02:16:35;14.50;99.90
31391;DHT22;18022;45.492;11.548;2022-09-21T02:30:17;14.70;99.90
31391;DHT22;18022;45.492;11.548;2022-09-21T02:33:01;14.70;99.90
31391;DHT22;18022;45.492;11.548;2022-09-21T02:38:38;14.80;99.90
31391;DHT22;18022;45.492;11.548;2022-09-21T02:41:23;14.90;99.90
31391;DHT22;18022;45.492;11.548;2022-09-21T02:46:35;14.60;99.90
31391;DHT22;18022;45.492;11.548;2022-09-21T02:49:06;14.70;99.90
31391;DHT22;18022;45.492;11.548;2022-09-21T02:51:38;14.80;99.90
31391;DHT22;18022;45.492;11.548;2022-09-21T02:54:07;14.80;99.90
31391;DHT22;18022;45.492;11.548;2022-09-21T02:56:35;14.70;99.90
31391;DHT22;18022;45.492;11.548;2022-09-21T02:59:03;14.70;99.90
31391;DHT22;18022;45.492;11.548;2022-09-21T03:01:30;14.70;99.90
31391;DHT22;18022;45.492;11.548;2022-09-21T03:03:57;14.70;99.90
31391;DHT22;18022;45.492;11.548;2022-09-21T03:06:23;14.60;99.90
31391;DHT22;18022;45.492;11.548;2022-09-21T03:08:49;14.60;99.90
31391;DHT22;18022;45.492;11.548;2022-09-21T03:11:18;14.50;99.90
31391;DHT22;18022;45.492;11.548;2022-09-21T03:13:45;14.40;99.90
31391;DHT22;18022;45.492;11.548;2022-09-21T03:16:11;14.40;99.90
31391;DHT22;18022;45.492;11.548;2022-09-21T03:18:38;14.40;99.90
31391;DHT22;18022;45.492;11.548;2022-09-21T03:21:04;14.30;99.90
31391;DHT22;18022;45.492;11.548;2022-09-21T03:23:30;14.20;99.90
31391;DHT22;18022;45.492;11.548;2022-09-21T03:25:56;14.20;99.90
31391;DHT22;18022;45.492;11.548;2022-09-21T03:28:22;14.20;99.90
31391;DHT22;18022;45.492;11.548;2022-09-21T03:30:49;14.20;99.90
31391;DHT22;18022;45.492;11.548;2022-09-21T03:33:16;14.20;99.90
31391;DHT22;18022;45.492;11.548;2022-09-21T03:35:41;14.00;99.90
31391;DHT22;18022;45.492;11.548;2022-09-21T03:38:07;13.80;99.90
31391;DHT22;18022;45.492;11.548;2022-09-21T03:40:33;13.90;99.90
31391;DHT22;18022;45.492;11.548;2022-09-21T03:42:59;13.90;99.90
31391;DHT22;18022;45.492;11.548;2022-09-21T03:45:25;13.80;99.90
31391;DHT22;18022;45.492;11.548;2022-09-21T03:47:54;13.80;99.90
31391;DHT22;18022;45.492;11.548;2022-09-21T03:50:21;13.80;99.90
31391;DHT22;18022;45.492;11.548;2022-09-21T03:52:47;13.80;99.90
31391;DHT22;18022;45.492;11.548;2022-09-21T03:55:13;13.80;99.90
31391;DHT22;18022;45.492;11.548;2022-09-21T03:57:38;13.90;99.90
31391;DHT22;18022;45.492;11.548;2022-09-21T04:00:07;13.90;99.90
31391;DHT22;18022;45.492;11.548;2022-09-21T04:02:34;14.00;99.90
31391;DHT22;18022;45.492;11.548;2022-09-21T04:05:00;14.00;99.90
31391;DHT22;18022;45.492;11.548;2022-09-21T04:07:30;13.90;99.90
31391;DHT22;18022;45.492;11.548;2022-09-21T04:10:05;14.00;99.90
31391;DHT22;18022;45.492;11.548;2022-09-21T04:12:34;13.90;99.90
31391;DHT22;18022;45.492;11.548;2022-09-21T04:15:01;13.90;99.90
31391;DHT22;18022;45.492;11.548;2022-09-21T04:17:27;13.90;99.90
31391;DHT22;18022;45.492;11.548;2022-09-21T04:19:53;13.70;99.90
31391;DHT22;18022;45.492;11.548;2022-09-21T04:22:18;13.80;99.90
31391;DHT22;18022;45.492;11.548;2022-09-21T04:24:44;13.70;99.90
31391;DHT22;18022;45.492;11.548;2022-09-21T04:27:10;13.70;99.90
31391;DHT22;18022;45.492;11.548;2022-09-21T04:29:37;13.70;99.90
31391;DHT22;18022;45.492;11.548;2022-09-21T04:32:04;13.60;99.90
31391;DHT22;18022;45.492;11.548;2022-09-21T04:34:30;13.70;99.90
31391;DHT22;18022;45.492;11.548;2022-09-21T04:36:57;13.70;99.90
31391;DHT22;18022;45.492;11.548;2022-09-21T04:39:23;13.70;99.90
31391;DHT22;18022;45.492;11.548;2022-09-21T04:41:49;13.90;99.90
31391;DHT22;18022;45.492;11.548;2022-09-21T04:44:15;13.80;99.90
31391;DHT22;18022;45.492;11.548;2022-09-21T04:46:44;13.80;99.90
31391;DHT22;18022;45.492;11.548;2022-09-21T04:49:09;13.70;99.90
31391;DHT22;18022;45.492;11.548;2022-09-21T04:51:35;13.60;99.90
31391;DHT22;18022;45.492;11.548;2022-09-21T04:54:01;13.60;99.90
31391;DHT22;18022;45.492;11.548;2022-09-21T04:56:27;13.60;99.90
31391;DHT22;18022;45.492;11.548;2022-09-21T04:58:53;13.60;99.90
31391;DHT22;18022;45.492;11.548;2022-09-21T05:01:18;13.50;99.90
31391;DHT22;18022;45.492;11.548;2022-09-21T05:03:44;13.50;99.90
31391;DHT22;18022;45.492;11.548;2022-09-21T05:06:10;13.60;99.90
31391;DHT22;18022;45.492;11.548;2022-09-21T05:08:38;13.60;99.90
31391;DHT22;18022;45.492;11.548;2022-09-21T05:11:23;13.60;99.90
31391;DHT22;18022;45.492;11.548;2022-09-21T05:13:49;13.60;99.90
31391;DHT22;18022;45.492;11.548;2022-09-21T05:16:16;13.60;99.90
31391;DHT22;18022;45.492;11.548;2022-09-21T05:18:42;13.70;99.90
31391;DHT22;18022;45.492;11.548;2022-09-21T05:21:08;13.70;99.90
31391;DHT22;18022;45.492;11.548;2022-09-21T05:23:35;13.60;99.90
31391;DHT22;18022;45.492;11.548;2022-09-21T05:26:01;13.50;99.90
31391;DHT22;18022;45.492;11.548;2022-09-21T05:28:27;13.50;99.90
31391;DHT22;18022;45.492;11.548;2022-09-21T05:31:42;13.50;99.90
31391;DHT22;18022;45.492;11.548;2022-09-21T05:34:24;13.60;99.90
31391;DHT22;18022;45.492;11.548;2022-09-21T05:36:52;13.70;99.90
31391;DHT22;18022;45.492;11.548;2022-09-21T05:39:22;13.70;99.90
31391;DHT22;18022;45.492;11.548;2022-09-21T05:41:48;13.70;99.90
31391;DHT22;18022;45.492;11.548;2022-09-21T05:44:14;13.90;99.90
31391;DHT22;18022;45.492;11.548;2022-09-21T05:49:18;13.80;99.90
31391;DHT22;18022;45.492;11.548;2022-09-21T05:52:09;13.70;99.90
31391;DHT22;18022;45.492;11.548;2022-09-21T05:57:22;13.80;99.90
31391;DHT22;18022;45.492;11.548;2022-09-21T06:00:08;13.80;99.90
31391;DHT22;18022;45.492;11.548;2022-09-21T06:05:11;13.80;99.90
31391;DHT22;18022;45.492;11.548;2022-09-21T06:07:37;13.90;99.90
31391;DHT22;18022;45.492;11.548;2022-09-21T06:10:04;14.00;99.90
31391;DHT22;18022;45.492;11.548;2022-09-21T06:12:29;14.10;99.90
31391;DHT22;18022;45.492;11.548;2022-09-21T06:14:55;14.00;99.90
31391;DHT22;18022;45.492;11.548;2022-09-21T06:17:21;14.20;99.90
31391;DHT22;18022;45.492;11.548;2022-09-21T06:19:47;14.20;99.90
31391;DHT22;18022;45.492;11.548;2022-09-21T06:22:13;14.20;99.90
31391;DHT22;18022;45.492;11.548;2022-09-21T06:24:38;14.20;99.90
31391;DHT22;18022;45.492;11.548;2022-09-21T06:27:04;14.20;99.90
31391;DHT22;18022;45.492;11.548;2022-09-21T06:29:30;14.20;99.90
31391;DHT22;18022;45.492;11.548;2022-09-21T06:31:56;14.20;99.90
31391;DHT22;18022;45.492;11.548;2022-09-21T06:34:21;14.30;99.90
31391;DHT22;18022;45.492;11.548;2022-09-21T06:36:47;14.30;99.90
31391;DHT22;18022;45.492;11.548;2022-09-21T06:39:13;14.40;99.90
31391;DHT22;18022;45.492;11.548;2022-09-21T06:41:38;14.50;99.90
31391;DHT22;18022;45.492;11.548;2022-09-21T06:44:04;14.60;99.90
31391;DHT22;18022;45.492;11.548;2022-09-21T06:46:30;14.60;99.90
31391;DHT22;18022;45.492;11.548;2022-09-21T06:48:55;14.60;99.90
31391;DHT22;18022;45.492;11.548;2022-09-21T06:51:21;14.60;99.90
31391;DHT22;18022;45.492;11.548;2022-09-21T06:53:48;14.60;99.90
31391;DHT22;18022;45.492;11.548;2022-09-21T06:56:18;14.60;99.90
31391;DHT22;18022;45.492;11.548;2022-09-21T06:58:44;14.40;99.90
31391;DHT22;18022;45.492;11.548;2022-09-21T07:01:11;14.40;99.90
31391;DHT22;18022;45.492;11.548;2022-09-21T07:03:39;14.60;99.90
31391;DHT22;18022;45.492;11.548;2022-09-21T07:06:06;14.80;99.90
31391;DHT22;18022;45.492;11.548;2022-09-21T07:08:32;14.90;99.90
31391;DHT22;18022;45.492;11.548;2022-09-21T07:10:59;15.00;99.90
31391;DHT22;18022;45.492;11.548;2022-09-21T07:13:28;15.10;99.90
31391;DHT22;18022;45.492;11.548;2022-09-21T07:15:54;15.20;99.90
31391;DHT22;18022;45.492;11.548;2022-09-21T07:18:21;15.30;99.90
31391;DHT22;18022;45.492;11.548;2022-09-21T07:20:47;15.40;99.90
31391;DHT22;18022;45.492;11.548;2022-09-21T07:23:18;15.50;99.90
31391;DHT22;18022;45.492;11.548;2022-09-21T07:25:45;15.60;99.90
31391;DHT22;18022;45.492;11.548;2022-09-21T07:28:13;15.60;99.90
31391;DHT22;18022;45.492;11.548;2022-09-21T07:30:41;15.70;99.90
31391;DHT22;18022;45.492;11.548;2022-09-21T07:33:08;15.80;99.90
31391;DHT22;18022;45.492;11.548;2022-09-21T07:35:34;16.00;99.90
31391;DHT22;18022;45.492;11.548;2022-09-21T07:38:03;16.10;99.90
31391;DHT22;18022;45.492;11.548;2022-09-21T07:40:30;16.10;99.90
31391;DHT22;18022;45.492;11.548;2022-09-21T07:43:00;16.20;99.90
31391;DHT22;18022;45.492;11.548;2022-09-21T07:45:29;16.40;99.90
31391;DHT22;18022;45.492;11.548;2022-09-21T07:48:05;16.40;99.90
31391;DHT22;18022;45.492;11.548;2022-09-21T07:50:31;16.50;99.90
31391;DHT22;18022;45.492;11.548;2022-09-21T07:53:00;16.60;99.90
31391;DHT22;18022;45.492;11.548;2022-09-21T07:55:27;16.60;99.90
31391;DHT22;18022;45.492;11.548;2022-09-21T07:57:53;16.60;99.90
31391;DHT22;18022;45.492;11.548;2022-09-21T08:00:37;16.70;99.90
31391;DHT22;18022;45.492;11.548;2022-09-21T08:03:04;16.90;99.90
31391;DHT22;18022;45.492;11.548;2022-09-21T08:05:31;16.90;99.90
31391;DHT22;18022;45.492;11.548;2022-09-21T08:07:57;17.00;99.90
31391;DHT22;18022;45.492;11.548;2022-09-21T08:10:24;17.00;99.90
31391;DHT22;18022;45.492;11.548;2022-09-21T08:12:53;17.10;99.90
31391;DHT22;18022;45.492;11.548;2022-09-21T08:15:19;17.10;99.90
31391;DHT22;18022;45.492;11.548;2022-09-21T08:17:45;17.20;99.90
31391;DHT22;18022;45.492;11.548;2022-09-21T08:20:11;17.20;99.90
31391;DHT22;18022;45.492;11.548;2022-09-21T08:22:37;17.30;99.90
31391;DHT22;18022;45.492;11.548;2022-09-21T08:25:03;17.50;99.90
31391;DHT22;18022;45.492;11.548;2022-09-21T08:27:29;17.40;99.90
31391;DHT22;18022;45.492;11.548;2022-09-21T08:29:55;17.40;99.90
31391;DHT22;18022;45.492;11.548;2022-09-21T08:32:20;17.30;99.90
31391;DHT22;18022;45.492;11.548;2022-09-21T08:34:46;17.30;99.90
31391;DHT22;18022;45.492;11.548;2022-09-21T08:37:12;17.40;99.90
31391;DHT22;18022;45.492;11.548;2022-09-21T08:39:37;17.40;99.90
31391;DHT22;18022;45.492;11.548;2022-09-21T08:44:42;17.70;99.90
31391;DHT22;18022;45.492;11.548;2022-09-21T08:52:56;18.20;99.90
31391;DHT22;18022;45.492;11.548;2022-09-21T08:55:23;18.10;99.90
31391;DHT22;18022;45.492;11.548;2022-09-21T08:57:49;18.00;99.50
31391;DHT22;18022;45.492;11.548;2022-09-21T09:00:17;18.00;99.80
31391;DHT22;18022;45.492;11.548;2022-09-21T09:16:39;18.40;99.20
31391;DHT22;18022;45.492;11.548;2022-09-21T09:19:40;18.60;99.90
31391;DHT22;18022;45.492;11.548;2022-09-21T09:22:11;18.80;99.40
31391;DHT22;18022;45.492;11.548;2022-09-21T09:24:42;18.90;99.60
31391;DHT22;18022;45.492;11.548;2022-09-21T09:27:16;18.70;98.10
31391;DHT22;18022;45.492;11.548;2022-09-21T09:32:29;19.10;98.90
31391;DHT22;18022;45.492;11.548;2022-09-21T09:35:14;19.00;98.40
31391;DHT22;18022;45.492;11.548;2022-09-21T09:37:43;19.30;98.30
31391;DHT22;18022;45.492;11.548;2022-09-21T09:40:11;19.60;99.00
31391;DHT22;18022;45.492;11.548;2022-09-21T09:42:44;19.70;97.40
31391;DHT22;18022;45.492;11.548;2022-09-21T09:45:28;19.40;98.00
31391;DHT22;18022;45.492;11.548;2022-09-21T09:50:48;19.80;98.50
31391;DHT22;18022;45.492;11.548;2022-09-21T09:53:22;19.80;96.40
31391;DHT22;18022;45.492;11.548;2022-09-21T09:55:52;19.50;98.20
31391;DHT22;18022;45.492;11.548;2022-09-21T09:58:21;19.90;97.60
31391;DHT22;18022;45.492;11.548;2022-09-21T10:00:51;19.70;97.40
31391;DHT22;18022;45.492;11.548;2022-09-21T10:03:23;19.90;97.90
31391;DHT22;18022;45.492;11.548;2022-09-21T10:05:49;20.00;98.20
31391;DHT22;18022;45.492;11.548;2022-09-21T10:11:04;20.40;96.70
31391;DHT22;18022;45.492;11.548;2022-09-21T10:13:38;20.30;97.00
31391;DHT22;18022;45.492;11.548;2022-09-21T10:16:18;19.90;96.40
31391;DHT22;18022;45.492;11.548;2022-09-21T10:18:52;19.60;96.90
31391;DHT22;18022;45.492;11.548;2022-09-21T10:21:42;19.50;96.90
31391;DHT22;18022;45.492;11.548;2022-09-21T10:24:21;19.50;97.50
31391;DHT22;18022;45.492;11.548;2022-09-21T10:26:49;19.40;97.70
31391;DHT22;18022;45.492;11.548;2022-09-21T10:32:04;20.10;94.50
31391;DHT22;18022;45.492;11.548;2022-09-21T10:34:33;20.50;95.10
31391;DHT22;18022;45.492;11.548;2022-09-21T10:37:01;20.80;95.50
31391;DHT22;18022;45.492;11.548;2022-09-21T10:39:32;21.00;95.80
31391;DHT22;18022;45.492;11.548;2022-09-21T10:42:11;21.20;95.80
31391;DHT22;18022;45.492;11.548;2022-09-21T10:44:43;21.20;94.90
31391;DHT22;18022;45.492;11.548;2022-09-21T10:47:21;21.30;95.40
31391;DHT22;18022;45.492;11.548;2022-09-21T10:49:50;21.50;93.00
31391;DHT22;18022;45.492;11.548;2022-09-21T10:52:20;21.40;93.60
31391;DHT22;18022;45.492;11.548;2022-09-21T10:54:48;20.90;93.70
31391;DHT22;18022;45.492;11.548;2022-09-21T10:57:18;20.80;94.40
31391;DHT22;18022;45.492;11.548;2022-09-21T10:59:45;20.80;92.70
31391;DHT22;18022;45.492;11.548;2022-09-21T11:05:32;20.90;94.10
31391;DHT22;18022;45.492;11.548;2022-09-21T11:08:17;21.40;94.40
31391;DHT22;18022;45.492;11.548;2022-09-21T11:11:15;21.60;93.10
31391;DHT22;18022;45.492;11.548;2022-09-21T11:13:51;21.30;93.70
31391;DHT22;18022;45.492;11.548;2022-09-21T11:16:32;21.50;92.70
31391;DHT22;18022;45.492;11.548;2022-09-21T11:22:42;21.50;91.90
31391;DHT22;18022;45.492;11.548;2022-09-21T11:24:53;21.30;91.70
31391;DHT22;18022;45.492;11.548;2022-09-21T11:30:12;22.00;91.80
31391;DHT22;18022;45.492;11.548;2022-09-21T11:47:16;21.20;91.40
31391;DHT22;18022;45.492;11.548;2022-09-21T11:57:24;21.00;90.30
31391;DHT22;18022;45.492;11.548;2022-09-21T12:05:35;20.80;91.80
31391;DHT22;18022;45.492;11.548;2022-09-21T12:10:49;21.20;91.90
31391;DHT22;18022;45.492;11.548;2022-09-21T12:13:27;21.60;91.00
31391;DHT22;18022;45.492;11.548;2022-09-21T12:21:43;21.40;90.10
31391;DHT22;18022;45.492;11.548;2022-09-21T12:24:25;21.70;89.60
31391;DHT22;18022;45.492;11.548;2022-09-21T12:26:56;21.30;89.50
31391;DHT22;18022;45.492;11.548;2022-09-21T12:29:37;21.20;90.90
31391;DHT22;18022;45.492;11.548;2022-09-21T12:34:45;21.80;90.90
31391;DHT22;18022;45.492;11.548;2022-09-21T12:37:28;22.10;89.20
31391;DHT22;18022;45.492;11.548;2022-09-21T12:40:22;22.30;88.60
31391;DHT22;18022;45.492;11.548;2022-09-21T12:46:41;22.70;87.50
31391;DHT22;18022;45.492;11.548;2022-09-21T12:48:36;22.60;87.00
31391;DHT22;18022;45.492;11.548;2022-09-21T12:51:30;22.50;87.90
31391;DHT22;18022;45.492;11.548;2022-09-21T12:54:00;22.60;87.80
31391;DHT22;18022;45.492;11.548;2022-09-21T13:01:34;22.80;87.00
31391;DHT22;18022;45.492;11.548;2022-09-21T13:09:29;23.10;89.80
31391;DHT22;18022;45.492;11.548;2022-09-21T13:14:33;23.10;88.80
31391;DHT22;18022;45.492;11.548;2022-09-21T13:17:03;23.20;87.60
31391;DHT22;18022;45.492;11.548;2022-09-21T13:19:32;23.10;86.60
31391;DHT22;18022;45.492;11.548;2022-09-21T13:22:23;22.50;85.80
31391;DHT22;18022;45.492;11.548;2022-09-21T13:44:02;22.80;85.50
31391;DHT22;18022;45.492;11.548;2022-09-21T13:52:18;22.60;86.10
31391;DHT22;18022;45.492;11.548;2022-09-21T13:54:50;22.70;87.30
31391;DHT22;18022;45.492;11.548;2022-09-21T14:00:23;22.70;85.60
31391;DHT22;18022;45.492;11.548;2022-09-21T14:07:44;22.30;87.60
31391;DHT22;18022;45.492;11.548;2022-09-21T14:10:17;22.60;87.60
31391;DHT22;18022;45.492;11.548;2022-09-21T14:12:45;22.60;85.50
31391;DHT22;18022;45.492;11.548;2022-09-21T14:17:44;22.50;85.40
31391;DHT22;18022;45.492;11.548;2022-09-21T14:23:27;22.60;86.90
31391;DHT22;18022;45.492;11.548;2022-09-21T14:26:00;22.40;84.50
31391;DHT22;18022;45.492;11.548;2022-09-21T14:28:42;22.40;85.20
31391;DHT22;18022;45.492;11.548;2022-09-21T14:31:36;22.30;87.10
31391;DHT22;18022;45.492;11.548;2022-09-21T14:34:04;22.30;87.10
31391;DHT22;18022;45.492;11.548;2022-09-21T14:36:42;22.40;86.50
31391;DHT22;18022;45.492;11.548;2022-09-21T14:39:19;22.20;87.40
31391;DHT22;18022;45.492;11.548;2022-09-21T14:41:48;22.20;85.70
31391;DHT22;18022;45.492;11.548;2022-09-21T14:44:22;22.00;88.50
31391;DHT22;18022;45.492;11.548;2022-09-21T15:00:45;21.50;87.60
31391;DHT22;18022;45.492;11.548;2022-09-21T15:06:26;21.10;86.60
31391;DHT22;18022;45.492;11.548;2022-09-21T15:12:45;21.00;89.90
31391;DHT22;18022;45.492;11.548;2022-09-21T15:17:58;21.00;88.20
31391;DHT22;18022;45.492;11.548;2022-09-21T15:20:29;21.10;86.60
31391;DHT22;18022;45.492;11.548;2022-09-21T15:22:57;21.20;87.70
31391;DHT22;18022;45.492;11.548;2022-09-21T15:25:25;21.30;87.30
31391;DHT22;18022;45.492;11.548;2022-09-21T15:27:52;21.30;88.10
31391;DHT22;18022;45.492;11.548;2022-09-21T15:30:27;21.30;87.30
31391;DHT22;18022;45.492;11.548;2022-09-21T15:32:55;21.30;87.20
31391;DHT22;18022;45.492;11.548;2022-09-21T15:35:27;21.10;86.30
31391;DHT22;18022;45.492;11.548;2022-09-21T15:37:54;21.00;87.80
31391;DHT22;18022;45.492;11.548;2022-09-21T15:53:51;20.70;89.80
31391;DHT22;18022;45.492;11.548;2022-09-21T15:56:20;20.70;88.50
31391;DHT22;18022;45.492;11.548;2022-09-21T15:58:47;20.70;86.90
31391;DHT22;18022;45.492;11.548;2022-09-21T16:01:19;20.60;88.90
31391;DHT22;18022;45.492;11.548;2022-09-21T16:03:46;20.60;88.30
31391;DHT22;18022;45.492;11.548;2022-09-21T16:06:34;20.60;88.80
31391;DHT22;18022;45.492;11.548;2022-09-21T16:11:48;20.30;87.40
31391;DHT22;18022;45.492;11.548;2022-09-21T16:14:16;20.20;87.70
31391;DHT22;18022;45.492;11.548;2022-09-21T16:22:26;19.90;88.60
31391;DHT22;18022;45.492;11.548;2022-09-21T16:24:58;19.70;87.20
31391;DHT22;18022;45.492;11.548;2022-09-21T16:27:27;19.70;90.00
31391;DHT22;18022;45.492;11.548;2022-09-21T16:29:55;19.60;90.60
31391;DHT22;18022;45.492;11.548;2022-09-21T16:32:30;19.50;91.10
31391;DHT22;18022;45.492;11.548;2022-09-21T16:35:27;19.50;90.20
31391;DHT22;18022;45.492;11.548;2022-09-21T16:37:53;19.40;89.70
31391;DHT22;18022;45.492;11.548;2022-09-21T16:40:26;19.50;90.20
31391;DHT22;18022;45.492;11.548;2022-09-21T16:42:52;19.40;90.40
31391;DHT22;18022;45.492;11.548;2022-09-21T16:45:27;19.30;91.30
31391;DHT22;18022;45.492;11.548;2022-09-21T16:47:56;19.20;90.80
31391;DHT22;18022;45.492;11.548;2022-09-21T16:50:22;19.10;91.40
31391;DHT22;18022;45.492;11.548;2022-09-21T16:52:49;19.10;91.70
31391;DHT22;18022;45.492;11.548;2022-09-21T16:55:20;19.00;91.50
31391;DHT22;18022;45.492;11.548;2022-09-21T16:57:46;18.80;90.80
31391;DHT22;18022;45.492;11.548;2022-09-21T17:00:15;18.80;91.90
31391;DHT22;18022;45.492;11.548;2022-09-21T17:02:45;18.80;91.50
31391;DHT22;18022;45.492;11.548;2022-09-21T17:05:12;18.70;90.60
31391;DHT22;18022;45.492;11.548;2022-09-21T17:07:54;18.70;91.80
31391;DHT22;18022;45.492;11.548;2022-09-21T17:10:26;18.70;91.70
31391;DHT22;18022;45.492;11.548;2022-09-21T17:12:54;18.70;91.00
31391;DHT22;18022;45.492;11.548;2022-09-21T17:15:20;18.60;92.10
31391;DHT22;18022;45.492;11.548;2022-09-21T17:17:48;18.50;93.10
31391;DHT22;18022;45.492;11.548;2022-09-21T17:22:55;18.00;92.80
31391;DHT22;18022;45.492;11.548;2022-09-21T17:25:21;18.00;93.00
31391;DHT22;18022;45.492;11.548;2022-09-21T17:27:47;17.90;94.30
31391;DHT22;18022;45.492;11.548;2022-09-21T17:30:13;17.80;95.10
31391;DHT22;18022;45.492;11.548;2022-09-21T17:32:42;17.70;95.60
31391;DHT22;18022;45.492;11.548;2022-09-21T17:37:55;17.70;95.80
31391;DHT22;18022;45.492;11.548;2022-09-21T17:40:21;17.70;96.10
31391;DHT22;18022;45.492;11.548;2022-09-21T17:42:48;17.30;96.90
31391;DHT22;18022;45.492;11.548;2022-09-21T17:48:02;17.30;97.70
31391;DHT22;18022;45.492;11.548;2022-09-21T17:50:28;17.20;97.50
31391;DHT22;18022;45.492;11.548;2022-09-21T17:52:55;17.10;97.40
31391;DHT22;18022;45.492;11.548;2022-09-21T17:56:01;17.10;97.40
31391;DHT22;18022;45.492;11.548;2022-09-21T17:58:59;17.10;97.40
31391;DHT22;18022;45.492;11.548;2022-09-21T18:01:32;17.10;97.60
31391;DHT22;18022;45.492;11.548;2022-09-21T18:03:59;17.00;98.10
31391;DHT22;18022;45.492;11.548;2022-09-21T18:06:25;16.90;98.00
31391;DHT22;18022;45.492;11.548;2022-09-21T18:08:51;16.80;98.20
31391;DHT22;18022;45.492;11.548;2022-09-21T18:11:48;16.70;98.40
31391;DHT22;18022;45.492;11.548;2022-09-21T18:22:55;16.50;98.50
31391;DHT22;18022;45.492;11.548;2022-09-21T18:25:33;16.40;98.30
31391;DHT22;18022;45.492;11.548;2022-09-21T18:28:10;16.50;98.70
31391;DHT22;18022;45.492;11.548;2022-09-21T18:30:39;16.10;99.10
31391;DHT22;18022;45.492;11.548;2022-09-21T18:33:17;16.30;99.20
31391;DHT22;18022;45.492;11.548;2022-09-21T18:38:45;16.10;99.40
31391;DHT22;18022;45.492;11.548;2022-09-21T18:47:07;16.00;98.60
31391;DHT22;18022;45.492;11.548;2022-09-21T18:53:02;15.80;99.00
31391;DHT22;18022;45.492;11.548;2022-09-21T18:55:31;15.70;99.10
31391;DHT22;18022;45.492;11.548;2022-09-21T18:57:59;15.70;99.20
31391;DHT22;18022;45.492;11.548;2022-09-21T19:00:27;15.70;99.50
31391;DHT22;18022;45.492;11.548;2022-09-21T19:03:10;15.70;99.00
31391;DHT22;18022;45.492;11.548;2022-09-21T19:05:39;15.60;99.10
31391;DHT22;18022;45.492;11.548;2022-09-21T19:08:18;15.50;99.30
31391;DHT22;18022;45.492;11.548;2022-09-21T19:10:52;15.30;99.40
31391;DHT22;18022;45.492;11.548;2022-09-21T19:13:41;15.20;99.60
31391;DHT22;18022;45.492;11.548;2022-09-21T19:16:30;15.30;99.80
31391;DHT22;18022;45.492;11.548;2022-09-21T19:19:18;15.20;99.90
31391;DHT22;18022;45.492;11.548;2022-09-21T19:27:36;15.10;99.90
31391;DHT22;18022;45.492;11.548;2022-09-21T19:30:13;15.10;99.90
31391;DHT22;18022;45.492;11.548;2022-09-21T19:32:52;15.00;99.90
31391;DHT22;18022;45.492;11.548;2022-09-21T19:35:22;15.00;99.90
31391;DHT22;18022;45.492;11.548;2022-09-21T19:37:51;15.10;99.90
31391;DHT22;18022;45.492;11.548;2022-09-21T19:40:21;14.90;99.90
31391;DHT22;18022;45.492;11.548;2022-09-21T19:48:24;14.70;99.90
31391;DHT22;18022;45.492;11.548;2022-09-21T19:50:53;14.90;99.90
31391;DHT22;18022;45.492;11.548;2022-09-21T19:53:21;14.70;99.90
31391;DHT22;18022;45.492;11.548;2022-09-21T19:56:15;14.60;99.90
31391;DHT22;18022;45.492;11.548;2022-09-21T19:59:00;14.60;99.90